sensor_id;sensor_type;location;lat;lon;timestamp;P1;durP1;ratioP1;P2;durP2;ratioP2
39788;SDS011;25478;42.626;23.320;2022-10-16T00:00:30;10.97;;;5.90;;
39788;SDS011;25478;42.626;23.320;2022-10-16T00:02:56;9.10;;;6.07;;
39788;SDS011;25478;42.626;23.320;2022-10-16T00:05:21;10.57;;;6.33;;
39788;SDS011;25478;42.626;23.320;2022-10-16T00:07:47;10.43;;;6.33;;
39788;SDS011;25478;42.626;23.320;2022-10-16T00:10:12;9.80;;;6.30;;
39788;SDS011;25478;42.626;23.320;2022-10-16T00:12:38;10.67;;;6.73;;
39788;SDS011;25478;42.626;23.320;2022-10-16T00:15:04;8.47;;;6.03;;
39788;SDS011;25478;42.626;23.320;2022-10-16T00:17:30;10.60;;;6.33;;
39788;SDS011;25478;42.626;23.320;2022-10-16T00:19:55;12.07;;;6.20;;
39788;SDS011;25478;42.626;23.320;2022-10-16T00:22:22;10.67;;;6.30;;
39788;SDS011;25478;42.626;23.320;2022-10-16T00:24:47;8.90;;;5.53;;
39788;SDS011;25478;42.626;23.320;2022-10-16T00:27:13;10.20;;;5.93;;
39788;SDS011;25478;42.626;23.320;2022-10-16T00:29:38;10.10;;;5.60;;
39788;SDS011;25478;42.626;23.320;2022-10-16T00:32:04;9.90;;;6.10;;
39788;SDS011;25478;42.626;23.320;2022-10-16T00:34:29;9.47;;;6.20;;
39788;SDS011;25478;42.626;23.320;2022-10-16T00:36:55;10.70;;;6.13;;
39788;SDS011;25478;42.626;23.320;2022-10-16T00:39:20;9.03;;;5.97;;
39788;SDS011;25478;42.626;23.320;2022-10-16T00:41:47;10.60;;;5.93;;
39788;SDS011;25478;42.626;23.320;2022-10-16T00:49:35;8.67;;;5.83;;
39788;SDS011;25478;42.626;23.320;2022-10-16T00:52:00;8.23;;;6.03;;
39788;SDS011;25478;42.626;23.320;2022-10-16T00:54:27;10.67;;;5.93;;
39788;SDS011;25478;42.626;23.320;2022-10-16T00:56:54;8.57;;;5.53;;
39788;SDS011;25478;42.626;23.320;2022-10-16T00:59:27;8.47;;;5.90;;
39788;SDS011;25478;42.626;23.320;2022-10-16T01:01:55;10.00;;;6.17;;
39788;SDS011;25478;42.626;23.320;2022-10-16T01:04:23;11.13;;;6.07;;
39788;SDS011;25478;42.626;23.320;2022-10-16T01:17:04;9.30;;;5.67;;
39788;SDS011;25478;42.626;23.320;2022-10-16T01:22:28;9.10;;;6.10;;
39788;SDS011;25478;42.626;23.320;2022-10-16T01:25:05;10.93;;;6.80;;
39788;SDS011;25478;42.626;23.320;2022-10-16T01:27:37;9.63;;;6.20;;
39788;SDS011;25478;42.626;23.320;2022-10-16T01:37:52;8.37;;;5.57;;
39788;SDS011;25478;42.626;23.320;2022-10-16T01:40:24;10.13;;;5.40;;
39788;SDS011;25478;42.626;23.320;2022-10-16T01:43:35;10.97;;;5.87;;
39788;SDS011;25478;42.626;23.320;2022-10-16T01:45:44;9.70;;;5.60;;
39788;SDS011;25478;42.626;23.320;2022-10-16T01:48:12;8.50;;;5.40;;
39788;SDS011;25478;42.626;23.320;2022-10-16T01:50:41;9.80;;;5.97;;
39788;SDS011;25478;42.626;23.320;2022-10-16T01:53:09;14.47;;;6.37;;
39788;SDS011;25478;42.626;23.320;2022-10-16T01:55:39;11.03;;;6.47;;
39788;SDS011;25478;42.626;23.320;2022-10-16T01:58:10;11.80;;;6.60;;
39788;SDS011;25478;42.626;23.320;2022-10-16T02:00:39;9.67;;;6.10;;
39788;SDS011;25478;42.626;23.320;2022-10-16T02:03:08;9.10;;;6.33;;
39788;SDS011;25478;42.626;23.320;2022-10-16T02:05:38;10.17;;;6.20;;
39788;SDS011;25478;42.626;23.320;2022-10-16T02:08:05;10.03;;;6.63;;
39788;SDS011;25478;42.626;23.320;2022-10-16T02:10:30;11.17;;;6.40;;
39788;SDS011;25478;42.626;23.320;2022-10-16T02:13:00;10.77;;;6.20;;
39788;SDS011;25478;42.626;23.320;2022-10-16T02:15:34;8.70;;;6.03;;
39788;SDS011;25478;42.626;23.320;2022-10-16T02:18:01;10.30;;;6.30;;
39788;SDS011;25478;42.626;23.320;2022-10-16T02:20:32;10.80;;;7.00;;
39788;SDS011;25478;42.626;23.320;2022-10-16T02:23:01;12.40;;;7.77;;
39788;SDS011;25478;42.626;23.320;2022-10-16T02:25:32;10.20;;;6.80;;
39788;SDS011;25478;42.626;23.320;2022-10-16T02:28:09;11.35;;;7.22;;
39788;SDS011;25478;42.626;23.320;2022-10-16T02:30:44;11.80;;;7.30;;
39788;SDS011;25478;42.626;23.320;2022-10-16T02:33:13;12.13;;;7.17;;
39788;SDS011;25478;42.626;23.320;2022-10-16T02:35:41;12.20;;;7.73;;
39788;SDS011;25478;42.626;23.320;2022-10-16T02:38:10;15.10;;;8.10;;
39788;SDS011;25478;42.626;23.320;2022-10-16T02:40:36;14.17;;;8.47;;
39788;SDS011;25478;42.626;23.320;2022-10-16T02:43:03;12.83;;;8.60;;
39788;SDS011;25478;42.626;23.320;2022-10-16T02:45:30;15.00;;;8.33;;
39788;SDS011;25478;42.626;23.320;2022-10-16T02:47:56;16.67;;;9.13;;
39788;SDS011;25478;42.626;23.320;2022-10-16T02:50:22;15.97;;;9.43;;
39788;SDS011;25478;42.626;23.320;2022-10-16T02:52:47;18.30;;;10.03;;
39788;SDS011;25478;42.626;23.320;2022-10-16T02:55:13;19.00;;;9.80;;
39788;SDS011;25478;42.626;23.320;2022-10-16T02:57:39;20.47;;;10.03;;
39788;SDS011;25478;42.626;23.320;2022-10-16T03:00:06;16.73;;;11.27;;
39788;SDS011;25478;42.626;23.320;2022-10-16T03:02:33;19.00;;;11.97;;
39788;SDS011;25478;42.626;23.320;2022-10-16T03:04:58;22.93;;;11.70;;
39788;SDS011;25478;42.626;23.320;2022-10-16T03:07:24;20.53;;;11.40;;
39788;SDS011;25478;42.626;23.320;2022-10-16T03:09:49;17.03;;;11.30;;
39788;SDS011;25478;42.626;23.320;2022-10-16T03:12:15;20.87;;;12.07;;
39788;SDS011;25478;42.626;23.320;2022-10-16T03:14:40;20.23;;;12.00;;
39788;SDS011;25478;42.626;23.320;2022-10-16T03:17:06;19.17;;;11.90;;
39788;SDS011;25478;42.626;23.320;2022-10-16T03:19:32;19.37;;;11.37;;
39788;SDS011;25478;42.626;23.320;2022-10-16T03:21:57;19.40;;;11.60;;
39788;SDS011;25478;42.626;23.320;2022-10-16T03:24:23;19.00;;;11.30;;
39788;SDS011;25478;42.626;23.320;2022-10-16T03:26:48;19.53;;;10.93;;
39788;SDS011;25478;42.626;23.320;2022-10-16T03:29:14;19.83;;;11.60;;
39788;SDS011;25478;42.626;23.320;2022-10-16T03:31:39;22.03;;;11.83;;
39788;SDS011;25478;42.626;23.320;2022-10-16T03:34:05;19.27;;;11.47;;
39788;SDS011;25478;42.626;23.320;2022-10-16T03:36:31;21.13;;;13.37;;
39788;SDS011;25478;42.626;23.320;2022-10-16T03:38:56;18.90;;;12.10;;
39788;SDS011;25478;42.626;23.320;2022-10-16T03:41:22;20.57;;;11.83;;
39788;SDS011;25478;42.626;23.320;2022-10-16T03:43:47;22.03;;;12.57;;
39788;SDS011;25478;42.626;23.320;2022-10-16T03:46:13;20.43;;;12.70;;
39788;SDS011;25478;42.626;23.320;2022-10-16T03:48:38;20.90;;;12.53;;
39788;SDS011;25478;42.626;23.320;2022-10-16T03:51:05;31.07;;;17.87;;
39788;SDS011;25478;42.626;23.320;2022-10-16T03:53:31;33.23;;;21.57;;
39788;SDS011;25478;42.626;23.320;2022-10-16T03:55:56;40.47;;;25.10;;
39788;SDS011;25478;42.626;23.320;2022-10-16T03:58:22;30.80;;;17.67;;
39788;SDS011;25478;42.626;23.320;2022-10-16T04:00:47;21.93;;;13.30;;
39788;SDS011;25478;42.626;23.320;2022-10-16T04:03:13;19.40;;;12.00;;
39788;SDS011;25478;42.626;23.320;2022-10-16T04:05:39;21.33;;;12.70;;
39788;SDS011;25478;42.626;23.320;2022-10-16T04:08:04;23.53;;;15.27;;
39788;SDS011;25478;42.626;23.320;2022-10-16T04:10:30;25.17;;;16.47;;
39788;SDS011;25478;42.626;23.320;2022-10-16T04:12:56;25.83;;;15.90;;
39788;SDS011;25478;42.626;23.320;2022-10-16T04:15:24;23.07;;;13.23;;
39788;SDS011;25478;42.626;23.320;2022-10-16T04:17:50;19.63;;;12.73;;
39788;SDS011;25478;42.626;23.320;2022-10-16T04:20:16;21.83;;;13.37;;
39788;SDS011;25478;42.626;23.320;2022-10-16T04:22:42;21.57;;;14.03;;
39788;SDS011;25478;42.626;23.320;2022-10-16T04:25:08;18.77;;;12.40;;
39788;SDS011;25478;42.626;23.320;2022-10-16T04:27:34;18.97;;;10.80;;
39788;SDS011;25478;42.626;23.320;2022-10-16T04:29:59;17.30;;;10.23;;
39788;SDS011;25478;42.626;23.320;2022-10-16T04:32:25;16.33;;;10.03;;
39788;SDS011;25478;42.626;23.320;2022-10-16T04:34:52;15.93;;;9.93;;
39788;SDS011;25478;42.626;23.320;2022-10-16T04:37:18;18.70;;;10.20;;
39788;SDS011;25478;42.626;23.320;2022-10-16T04:39:43;16.93;;;10.30;;
39788;SDS011;25478;42.626;23.320;2022-10-16T04:42:10;15.53;;;9.90;;
39788;SDS011;25478;42.626;23.320;2022-10-16T04:44:36;19.90;;;11.30;;
39788;SDS011;25478;42.626;23.320;2022-10-16T04:47:01;15.67;;;10.37;;
39788;SDS011;25478;42.626;23.320;2022-10-16T04:49:27;17.83;;;11.40;;
39788;SDS011;25478;42.626;23.320;2022-10-16T04:51:52;16.50;;;10.97;;
39788;SDS011;25478;42.626;23.320;2022-10-16T04:54:18;19.77;;;10.70;;
39788;SDS011;25478;42.626;23.320;2022-10-16T04:56:43;16.17;;;11.53;;
39788;SDS011;25478;42.626;23.320;2022-10-16T04:59:15;17.97;;;11.70;;
39788;SDS011;25478;42.626;23.320;2022-10-16T05:01:42;18.03;;;11.53;;
39788;SDS011;25478;42.626;23.320;2022-10-16T05:04:08;20.43;;;11.53;;
39788;SDS011;25478;42.626;23.320;2022-10-16T05:06:33;17.30;;;11.10;;
39788;SDS011;25478;42.626;23.320;2022-10-16T05:08:59;18.10;;;11.13;;
39788;SDS011;25478;42.626;23.320;2022-10-16T05:11:24;20.17;;;12.30;;
39788;SDS011;25478;42.626;23.320;2022-10-16T05:13:50;19.77;;;11.53;;
39788;SDS011;25478;42.626;23.320;2022-10-16T05:16:16;18.20;;;11.50;;
39788;SDS011;25478;42.626;23.320;2022-10-16T05:18:41;21.10;;;11.67;;
39788;SDS011;25478;42.626;23.320;2022-10-16T05:21:06;19.57;;;11.37;;
39788;SDS011;25478;42.626;23.320;2022-10-16T05:23:32;18.13;;;11.53;;
39788;SDS011;25478;42.626;23.320;2022-10-16T05:25:58;18.57;;;11.77;;
39788;SDS011;25478;42.626;23.320;2022-10-16T05:28:25;19.47;;;11.47;;
39788;SDS011;25478;42.626;23.320;2022-10-16T05:30:51;19.53;;;10.90;;
39788;SDS011;25478;42.626;23.320;2022-10-16T05:33:16;18.27;;;11.37;;
39788;SDS011;25478;42.626;23.320;2022-10-16T05:35:42;18.07;;;11.97;;
39788;SDS011;25478;42.626;23.320;2022-10-16T05:38:09;24.00;;;13.50;;
39788;SDS011;25478;42.626;23.320;2022-10-16T05:40:34;21.03;;;12.70;;
39788;SDS011;25478;42.626;23.320;2022-10-16T05:43:00;25.37;;;15.90;;
39788;SDS011;25478;42.626;23.320;2022-10-16T05:45:26;25.63;;;15.93;;
39788;SDS011;25478;42.626;23.320;2022-10-16T05:47:51;28.73;;;16.97;;
39788;SDS011;25478;42.626;23.320;2022-10-16T05:50:16;25.00;;;15.20;;
39788;SDS011;25478;42.626;23.320;2022-10-16T05:52:42;23.20;;;14.90;;
39788;SDS011;25478;42.626;23.320;2022-10-16T05:55:08;27.37;;;15.13;;
39788;SDS011;25478;42.626;23.320;2022-10-16T05:57:33;24.73;;;15.07;;
39788;SDS011;25478;42.626;23.320;2022-10-16T05:59:59;25.50;;;15.47;;
39788;SDS011;25478;42.626;23.320;2022-10-16T06:02:24;21.83;;;14.90;;
39788;SDS011;25478;42.626;23.320;2022-10-16T06:04:53;24.47;;;15.50;;
39788;SDS011;25478;42.626;23.320;2022-10-16T06:07:19;24.37;;;15.43;;
39788;SDS011;25478;42.626;23.320;2022-10-16T06:09:47;25.20;;;17.30;;
39788;SDS011;25478;42.626;23.320;2022-10-16T06:12:16;23.83;;;16.20;;
39788;SDS011;25478;42.626;23.320;2022-10-16T06:14:42;23.87;;;15.30;;
39788;SDS011;25478;42.626;23.320;2022-10-16T06:17:07;29.27;;;17.37;;
39788;SDS011;25478;42.626;23.320;2022-10-16T06:19:33;28.77;;;15.77;;
39788;SDS011;25478;42.626;23.320;2022-10-16T06:21:58;25.33;;;15.80;;
39788;SDS011;25478;42.626;23.320;2022-10-16T06:24:24;25.23;;;16.10;;
39788;SDS011;25478;42.626;23.320;2022-10-16T06:26:50;23.83;;;15.43;;
39788;SDS011;25478;42.626;23.320;2022-10-16T06:29:15;23.03;;;14.43;;
39788;SDS011;25478;42.626;23.320;2022-10-16T06:31:41;24.87;;;14.40;;
39788;SDS011;25478;42.626;23.320;2022-10-16T06:34:09;21.50;;;14.77;;
39788;SDS011;25478;42.626;23.320;2022-10-16T06:36:35;22.67;;;14.77;;
39788;SDS011;25478;42.626;23.320;2022-10-16T06:39:02;20.57;;;13.67;;
39788;SDS011;25478;42.626;23.320;2022-10-16T06:41:28;21.23;;;13.00;;
39788;SDS011;25478;42.626;23.320;2022-10-16T06:43:54;19.17;;;12.83;;
39788;SDS011;25478;42.626;23.320;2022-10-16T06:46:21;17.33;;;11.77;;
39788;SDS011;25478;42.626;23.320;2022-10-16T06:48:48;19.10;;;13.53;;
39788;SDS011;25478;42.626;23.320;2022-10-16T06:51:15;22.07;;;13.53;;
39788;SDS011;25478;42.626;23.320;2022-10-16T06:53:47;19.53;;;12.80;;
39788;SDS011;25478;42.626;23.320;2022-10-16T06:56:15;22.43;;;14.23;;
39788;SDS011;25478;42.626;23.320;2022-10-16T06:58:43;19.43;;;14.47;;
39788;SDS011;25478;42.626;23.320;2022-10-16T07:01:10;19.63;;;12.80;;
39788;SDS011;25478;42.626;23.320;2022-10-16T07:03:37;17.90;;;12.40;;
39788;SDS011;25478;42.626;23.320;2022-10-16T07:06:05;19.00;;;12.30;;
39788;SDS011;25478;42.626;23.320;2022-10-16T07:08:35;16.77;;;11.73;;
39788;SDS011;25478;42.626;23.320;2022-10-16T07:11:03;14.67;;;10.37;;
39788;SDS011;25478;42.626;23.320;2022-10-16T07:13:32;13.53;;;9.03;;
39788;SDS011;25478;42.626;23.320;2022-10-16T07:16:03;13.37;;;8.87;;
39788;SDS011;25478;42.626;23.320;2022-10-16T07:18:33;12.60;;;9.10;;
39788;SDS011;25478;42.626;23.320;2022-10-16T07:21:03;13.10;;;8.83;;
39788;SDS011;25478;42.626;23.320;2022-10-16T07:23:29;14.47;;;8.63;;
39788;SDS011;25478;42.626;23.320;2022-10-16T07:25:55;13.50;;;8.70;;
39788;SDS011;25478;42.626;23.320;2022-10-16T07:28:21;12.90;;;8.83;;
39788;SDS011;25478;42.626;23.320;2022-10-16T07:30:47;13.83;;;8.50;;
39788;SDS011;25478;42.626;23.320;2022-10-16T07:33:13;11.93;;;7.67;;
39788;SDS011;25478;42.626;23.320;2022-10-16T07:35:46;11.33;;;8.10;;
39788;SDS011;25478;42.626;23.320;2022-10-16T07:38:13;12.37;;;8.10;;
39788;SDS011;25478;42.626;23.320;2022-10-16T07:40:38;15.83;;;7.60;;
39788;SDS011;25478;42.626;23.320;2022-10-16T07:43:04;12.87;;;8.03;;
39788;SDS011;25478;42.626;23.320;2022-10-16T07:45:30;11.13;;;7.93;;
39788;SDS011;25478;42.626;23.320;2022-10-16T07:47:56;12.20;;;7.43;;
39788;SDS011;25478;42.626;23.320;2022-10-16T07:50:21;12.93;;;9.00;;
39788;SDS011;25478;42.626;23.320;2022-10-16T07:52:46;10.77;;;8.27;;
39788;SDS011;25478;42.626;23.320;2022-10-16T07:55:12;10.63;;;7.77;;
39788;SDS011;25478;42.626;23.320;2022-10-16T07:57:38;13.30;;;7.97;;
39788;SDS011;25478;42.626;23.320;2022-10-16T08:00:03;11.93;;;7.70;;
39788;SDS011;25478;42.626;23.320;2022-10-16T08:02:37;11.13;;;6.82;;
39788;SDS011;25478;42.626;23.320;2022-10-16T08:05:02;12.43;;;8.20;;
39788;SDS011;25478;42.626;23.320;2022-10-16T08:07:28;10.10;;;7.77;;
39788;SDS011;25478;42.626;23.320;2022-10-16T08:09:54;13.10;;;8.60;;
39788;SDS011;25478;42.626;23.320;2022-10-16T08:12:21;11.83;;;7.50;;
39788;SDS011;25478;42.626;23.320;2022-10-16T08:14:47;12.27;;;8.40;;
39788;SDS011;25478;42.626;23.320;2022-10-16T08:17:13;11.40;;;8.13;;
39788;SDS011;25478;42.626;23.320;2022-10-16T08:19:39;12.57;;;7.40;;
39788;SDS011;25478;42.626;23.320;2022-10-16T08:22:05;14.43;;;8.17;;
39788;SDS011;25478;42.626;23.320;2022-10-16T08:24:30;13.60;;;8.57;;
39788;SDS011;25478;42.626;23.320;2022-10-16T08:26:57;14.30;;;9.50;;
39788;SDS011;25478;42.626;23.320;2022-10-16T08:29:23;14.40;;;8.93;;
39788;SDS011;25478;42.626;23.320;2022-10-16T08:31:48;17.30;;;10.03;;
39788;SDS011;25478;42.626;23.320;2022-10-16T08:34:14;13.00;;;8.60;;
39788;SDS011;25478;42.626;23.320;2022-10-16T08:36:39;12.87;;;8.97;;
39788;SDS011;25478;42.626;23.320;2022-10-16T08:39:05;10.13;;;7.80;;
39788;SDS011;25478;42.626;23.320;2022-10-16T08:49:36;12.18;;;8.18;;
39788;SDS011;25478;42.626;23.320;2022-10-16T08:52:08;7.83;;;5.27;;
39788;SDS011;25478;42.626;23.320;2022-10-16T08:54:37;9.57;;;5.40;;
39788;SDS011;25478;42.626;23.320;2022-10-16T08:57:20;7.53;;;4.80;;
39788;SDS011;25478;42.626;23.320;2022-10-16T08:59:47;7.17;;;4.50;;
39788;SDS011;25478;42.626;23.320;2022-10-16T09:08:09;6.97;;;4.20;;
39788;SDS011;25478;42.626;23.320;2022-10-16T09:15:51;8.50;;;5.20;;
39788;SDS011;25478;42.626;23.320;2022-10-16T09:18:43;9.23;;;5.10;;
39788;SDS011;25478;42.626;23.320;2022-10-16T09:21:30;12.00;;;5.87;;
39788;SDS011;25478;42.626;23.320;2022-10-16T09:24:17;7.63;;;5.00;;
39788;SDS011;25478;42.626;23.320;2022-10-16T09:26:44;10.30;;;5.33;;
39788;SDS011;25478;42.626;23.320;2022-10-16T09:29:14;7.13;;;4.33;;
39788;SDS011;25478;42.626;23.320;2022-10-16T09:31:40;8.40;;;4.27;;
39788;SDS011;25478;42.626;23.320;2022-10-16T09:34:08;8.23;;;3.97;;
39788;SDS011;25478;42.626;23.320;2022-10-16T09:36:59;7.87;;;3.93;;
39788;SDS011;25478;42.626;23.320;2022-10-16T09:39:29;7.67;;;4.07;;
39788;SDS011;25478;42.626;23.320;2022-10-16T09:41:55;7.70;;;4.53;;
39788;SDS011;25478;42.626;23.320;2022-10-16T09:44:26;7.80;;;4.57;;
39788;SDS011;25478;42.626;23.320;2022-10-16T09:47:14;7.50;;;4.80;;
39788;SDS011;25478;42.626;23.320;2022-10-16T09:49:55;8.03;;;4.43;;
39788;SDS011;25478;42.626;23.320;2022-10-16T09:52:23;7.90;;;4.60;;
39788;SDS011;25478;42.626;23.320;2022-10-16T09:54:54;7.67;;;4.50;;
39788;SDS011;25478;42.626;23.320;2022-10-16T09:57:22;9.80;;;4.60;;
39788;SDS011;25478;42.626;23.320;2022-10-16T09:59:49;8.70;;;4.47;;
39788;SDS011;25478;42.626;23.320;2022-10-16T10:02:18;7.67;;;3.90;;
39788;SDS011;25478;42.626;23.320;2022-10-16T10:04:50;7.63;;;4.37;;
39788;SDS011;25478;42.626;23.320;2022-10-16T10:07:30;6.77;;;4.50;;
39788;SDS011;25478;42.626;23.320;2022-10-16T10:09:59;5.57;;;3.90;;
39788;SDS011;25478;42.626;23.320;2022-10-16T10:12:27;7.97;;;4.27;;
39788;SDS011;25478;42.626;23.320;2022-10-16T10:14:55;7.88;;;4.68;;
39788;SDS011;25478;42.626;23.320;2022-10-16T10:17:23;7.33;;;4.43;;
39788;SDS011;25478;42.626;23.320;2022-10-16T10:19:55;7.87;;;4.80;;
39788;SDS011;25478;42.626;23.320;2022-10-16T10:22:29;9.30;;;4.60;;
39788;SDS011;25478;42.626;23.320;2022-10-16T10:27:45;7.40;;;3.92;;
39788;SDS011;25478;42.626;23.320;2022-10-16T10:46:46;6.82;;;3.92;;
39788;SDS011;25478;42.626;23.320;2022-10-16T10:57:18;8.05;;;4.18;;
39788;SDS011;25478;42.626;23.320;2022-10-16T10:59:59;7.47;;;4.05;;
39788;SDS011;25478;42.626;23.320;2022-10-16T11:02:37;8.98;;;3.90;;
39788;SDS011;25478;42.626;23.320;2022-10-16T11:08:28;7.45;;;3.78;;
39788;SDS011;25478;42.626;23.320;2022-10-16T11:10:52;5.43;;;3.30;;
39788;SDS011;25478;42.626;23.320;2022-10-16T11:13:24;4.70;;;3.20;;
39788;SDS011;25478;42.626;23.320;2022-10-16T11:15:59;5.32;;;3.13;;
39788;SDS011;25478;42.626;23.320;2022-10-16T11:21:13;6.07;;;3.30;;
39788;SDS011;25478;42.626;23.320;2022-10-16T11:23:43;6.40;;;3.42;;
39788;SDS011;25478;42.626;23.320;2022-10-16T11:26:21;5.85;;;3.55;;
39788;SDS011;25478;42.626;23.320;2022-10-16T11:28:53;5.85;;;3.30;;
39788;SDS011;25478;42.626;23.320;2022-10-16T11:31:32;4.88;;;3.50;;
39788;SDS011;25478;42.626;23.320;2022-10-16T11:39:27;4.60;;;2.90;;
39788;SDS011;25478;42.626;23.320;2022-10-16T11:47:01;4.72;;;2.92;;
39788;SDS011;25478;42.626;23.320;2022-10-16T11:49:45;5.53;;;2.70;;
39788;SDS011;25478;42.626;23.320;2022-10-16T11:52:23;5.55;;;2.85;;
39788;SDS011;25478;42.626;23.320;2022-10-16T11:57:33;6.93;;;3.70;;
39788;SDS011;25478;42.626;23.320;2022-10-16T12:05:28;3.92;;;2.15;;
39788;SDS011;25478;42.626;23.320;2022-10-16T12:08:11;4.63;;;3.08;;
39788;SDS011;25478;42.626;23.320;2022-10-16T12:10:39;4.00;;;2.30;;
39788;SDS011;25478;42.626;23.320;2022-10-16T12:16:04;5.72;;;2.75;;
39788;SDS011;25478;42.626;23.320;2022-10-16T12:18:48;3.50;;;1.92;;
39788;SDS011;25478;42.626;23.320;2022-10-16T12:21:15;3.67;;;1.98;;
39788;SDS011;25478;42.626;23.320;2022-10-16T12:23:56;4.50;;;2.75;;
39788;SDS011;25478;42.626;23.320;2022-10-16T12:26:24;5.80;;;2.47;;
39788;SDS011;25478;42.626;23.320;2022-10-16T12:28:51;4.93;;;2.60;;
39788;SDS011;25478;42.626;23.320;2022-10-16T12:31:17;4.53;;;2.40;;
39788;SDS011;25478;42.626;23.320;2022-10-16T12:33:52;3.88;;;2.65;;
39788;SDS011;25478;42.626;23.320;2022-10-16T12:36:31;6.50;;;2.80;;
39788;SDS011;25478;42.626;23.320;2022-10-16T12:38:58;5.03;;;2.40;;
39788;SDS011;25478;42.626;23.320;2022-10-16T12:41:28;6.03;;;2.83;;
39788;SDS011;25478;42.626;23.320;2022-10-16T12:43:58;3.97;;;2.40;;
39788;SDS011;25478;42.626;23.320;2022-10-16T12:51:38;4.53;;;2.60;;
39788;SDS011;25478;42.626;23.320;2022-10-16T12:57:08;5.55;;;2.60;;
39788;SDS011;25478;42.626;23.320;2022-10-16T12:59:54;4.75;;;2.72;;
39788;SDS011;25478;42.626;23.320;2022-10-16T13:20:12;5.60;;;2.67;;
39788;SDS011;25478;42.626;23.320;2022-10-16T13:22:54;6.22;;;3.20;;
39788;SDS011;25478;42.626;23.320;2022-10-16T13:28:07;5.57;;;3.10;;
39788;SDS011;25478;42.626;23.320;2022-10-16T13:33:10;5.43;;;2.88;;
39788;SDS011;25478;42.626;23.320;2022-10-16T13:35:45;4.65;;;2.63;;
39788;SDS011;25478;42.626;23.320;2022-10-16T13:38:17;6.63;;;2.67;;
39788;SDS011;25478;42.626;23.320;2022-10-16T13:43:19;5.00;;;2.60;;
39788;SDS011;25478;42.626;23.320;2022-10-16T13:45:58;6.03;;;2.75;;
39788;SDS011;25478;42.626;23.320;2022-10-16T13:48:25;3.75;;;2.70;;
39788;SDS011;25478;42.626;23.320;2022-10-16T13:51:00;9.68;;;5.85;;
39788;SDS011;25478;42.626;23.320;2022-10-16T13:53:29;7.55;;;5.03;;
39788;SDS011;25478;42.626;23.320;2022-10-16T13:55:56;6.38;;;3.50;;
39788;SDS011;25478;42.626;23.320;2022-10-16T13:58:22;5.97;;;3.20;;
39788;SDS011;25478;42.626;23.320;2022-10-16T14:00:57;5.93;;;3.30;;
39788;SDS011;25478;42.626;23.320;2022-10-16T14:03:25;5.32;;;3.05;;
39788;SDS011;25478;42.626;23.320;2022-10-16T14:05:53;5.50;;;3.47;;
39788;SDS011;25478;42.626;23.320;2022-10-16T14:08:22;6.88;;;3.80;;
39788;SDS011;25478;42.626;23.320;2022-10-16T14:10:51;4.82;;;3.00;;
39788;SDS011;25478;42.626;23.320;2022-10-16T14:13:28;5.97;;;3.22;;
39788;SDS011;25478;42.626;23.320;2022-10-16T14:15:54;9.88;;;4.60;;
39788;SDS011;25478;42.626;23.320;2022-10-16T14:18:23;9.85;;;5.38;;
39788;SDS011;25478;42.626;23.320;2022-10-16T14:20:50;11.43;;;6.37;;
39788;SDS011;25478;42.626;23.320;2022-10-16T14:23:20;11.97;;;6.63;;
39788;SDS011;25478;42.626;23.320;2022-10-16T14:25:46;10.83;;;6.20;;
39788;SDS011;25478;42.626;23.320;2022-10-16T14:28:16;10.03;;;5.80;;
39788;SDS011;25478;42.626;23.320;2022-10-16T14:30:54;8.07;;;5.23;;
39788;SDS011;25478;42.626;23.320;2022-10-16T14:35:46;8.73;;;4.90;;
39788;SDS011;25478;42.626;23.320;2022-10-16T14:38:28;11.17;;;4.60;;
39788;SDS011;25478;42.626;23.320;2022-10-16T14:40:54;8.20;;;4.17;;
39788;SDS011;25478;42.626;23.320;2022-10-16T14:46:00;10.17;;;4.63;;
39788;SDS011;25478;42.626;23.320;2022-10-16T14:48:27;7.83;;;3.93;;
39788;SDS011;25478;42.626;23.320;2022-10-16T14:50:53;6.53;;;4.40;;
39788;SDS011;25478;42.626;23.320;2022-10-16T14:53:19;8.70;;;4.47;;
39788;SDS011;25478;42.626;23.320;2022-10-16T14:55:44;9.57;;;4.03;;
39788;SDS011;25478;42.626;23.320;2022-10-16T14:58:21;6.87;;;4.00;;
39788;SDS011;25478;42.626;23.320;2022-10-16T15:00:48;7.60;;;4.10;;
39788;SDS011;25478;42.626;23.320;2022-10-16T15:03:14;5.63;;;4.03;;
39788;SDS011;25478;42.626;23.320;2022-10-16T15:05:40;7.50;;;3.80;;
39788;SDS011;25478;42.626;23.320;2022-10-16T15:08:05;8.90;;;4.53;;
39788;SDS011;25478;42.626;23.320;2022-10-16T15:10:31;5.87;;;3.53;;
39788;SDS011;25478;42.626;23.320;2022-10-16T15:13:00;7.33;;;4.23;;
39788;SDS011;25478;42.626;23.320;2022-10-16T15:18:03;7.97;;;4.57;;
39788;SDS011;25478;42.626;23.320;2022-10-16T15:20:30;10.93;;;4.70;;
39788;SDS011;25478;42.626;23.320;2022-10-16T15:23:02;6.53;;;4.10;;
39788;SDS011;25478;42.626;23.320;2022-10-16T15:25:46;5.77;;;3.80;;
39788;SDS011;25478;42.626;23.320;2022-10-16T15:28:14;6.22;;;4.28;;
39788;SDS011;25478;42.626;23.320;2022-10-16T15:30:41;8.53;;;4.50;;
39788;SDS011;25478;42.626;23.320;2022-10-16T15:33:14;5.87;;;4.00;;
39788;SDS011;25478;42.626;23.320;2022-10-16T15:38:09;6.43;;;3.77;;
39788;SDS011;25478;42.626;23.320;2022-10-16T15:40:37;6.57;;;3.93;;
39788;SDS011;25478;42.626;23.320;2022-10-16T15:43:03;7.10;;;4.07;;
39788;SDS011;25478;42.626;23.320;2022-10-16T15:45:28;7.07;;;4.30;;
39788;SDS011;25478;42.626;23.320;2022-10-16T15:47:54;6.30;;;4.03;;
39788;SDS011;25478;42.626;23.320;2022-10-16T15:50:19;6.87;;;4.27;;
39788;SDS011;25478;42.626;23.320;2022-10-16T15:52:45;7.77;;;4.57;;
39788;SDS011;25478;42.626;23.320;2022-10-16T15:55:11;14.03;;;4.97;;
39788;SDS011;25478;42.626;23.320;2022-10-16T15:57:38;8.00;;;4.03;;
39788;SDS011;25478;42.626;23.320;2022-10-16T16:00:10;9.40;;;4.60;;
39788;SDS011;25478;42.626;23.320;2022-10-16T16:02:38;5.77;;;3.80;;
39788;SDS011;25478;42.626;23.320;2022-10-16T16:05:05;8.47;;;4.60;;
39788;SDS011;25478;42.626;23.320;2022-10-16T16:07:33;9.77;;;6.40;;
39788;SDS011;25478;42.626;23.320;2022-10-16T16:09:59;13.50;;;7.13;;
39788;SDS011;25478;42.626;23.320;2022-10-16T16:12:25;14.53;;;8.83;;
39788;SDS011;25478;42.626;23.320;2022-10-16T16:14:50;12.63;;;8.00;;
39788;SDS011;25478;42.626;23.320;2022-10-16T16:17:16;12.30;;;8.17;;
39788;SDS011;25478;42.626;23.320;2022-10-16T16:19:43;10.57;;;6.90;;
39788;SDS011;25478;42.626;23.320;2022-10-16T16:22:08;10.77;;;6.33;;
39788;SDS011;25478;42.626;23.320;2022-10-16T16:24:34;9.53;;;6.00;;
39788;SDS011;25478;42.626;23.320;2022-10-16T16:26:59;9.13;;;5.53;;
39788;SDS011;25478;42.626;23.320;2022-10-16T16:29:25;10.57;;;5.60;;
39788;SDS011;25478;42.626;23.320;2022-10-16T16:31:50;11.10;;;5.53;;
39788;SDS011;25478;42.626;23.320;2022-10-16T16:34:23;8.77;;;5.57;;
39788;SDS011;25478;42.626;23.320;2022-10-16T16:36:52;10.53;;;5.43;;
39788;SDS011;25478;42.626;23.320;2022-10-16T16:39:18;10.17;;;5.80;;
39788;SDS011;25478;42.626;23.320;2022-10-16T16:41:44;10.17;;;5.70;;
39788;SDS011;25478;42.626;23.320;2022-10-16T16:44:12;10.30;;;5.77;;
39788;SDS011;25478;42.626;23.320;2022-10-16T16:46:39;10.03;;;5.50;;
39788;SDS011;25478;42.626;23.320;2022-10-16T16:49:08;8.87;;;4.83;;
39788;SDS011;25478;42.626;23.320;2022-10-16T16:51:35;8.53;;;4.13;;
39788;SDS011;25478;42.626;23.320;2022-10-16T16:54:01;7.23;;;4.63;;